sensor_id;sensor_type;location;lat;lon;timestamp;temperature;humidity
75782;DHT22;64400;44.762;37.698;2022-12-19T00:02:38;3.72;90.49
75782;DHT22;64400;44.762;37.698;2022-12-19T00:05:27;3.76;90.43
75782;DHT22;64400;44.762;37.698;2022-12-19T00:08:15;3.77;90.31
75782;DHT22;64400;44.762;37.698;2022-12-19T00:11:04;3.76;90.53
75782;DHT22;64400;44.762;37.698;2022-12-19T00:13:52;3.71;89.46
75782;DHT22;64400;44.762;37.698;2022-12-19T00:16:41;3.74;90.48
75782;DHT22;64400;44.762;37.698;2022-12-19T00:19:29;3.76;90.99
75782;DHT22;64400;44.762;37.698;2022-12-19T00:22:18;3.69;89.43
75782;DHT22;64400;44.762;37.698;2022-12-19T00:25:07;3.69;90.33
75782;DHT22;64400;44.762;37.698;2022-12-19T00:27:55;3.69;90.25
75782;DHT22;64400;44.762;37.698;2022-12-19T00:30:44;3.65;90.21
75782;DHT22;64400;44.762;37.698;2022-12-19T00:33:32;3.56;90.08
75782;DHT22;64400;44.762;37.698;2022-12-19T00:36:24;3.58;91.02
75782;DHT22;64400;44.762;37.698;2022-12-19T00:39:12;3.50;89.70
75782;DHT22;64400;44.762;37.698;2022-12-19T00:42:01;3.54;90.46
75782;DHT22;64400;44.762;37.698;2022-12-19T00:44:49;3.58;90.86
75782;DHT22;64400;44.762;37.698;2022-12-19T00:47:38;3.55;90.18
75782;DHT22;64400;44.762;37.698;2022-12-19T00:50:26;3.56;90.38
75782;DHT22;64400;44.762;37.698;2022-12-19T00:53:15;3.53;89.63
75782;DHT22;64400;44.762;37.698;2022-12-19T00:56:06;3.55;89.95
75782;DHT22;64400;44.762;37.698;2022-12-19T00:58:56;3.56;90.66
75782;DHT22;64400;44.762;37.698;2022-12-19T01:01:45;3.59;89.56
75782;DHT22;64400;44.762;37.698;2022-12-19T01:04:34;3.60;90.03
75782;DHT22;64400;44.762;37.698;2022-12-19T01:07:23;3.60;89.76
75782;DHT22;64400;44.762;37.698;2022-12-19T01:10:11;3.60;89.92
75782;DHT22;64400;44.762;37.698;2022-12-19T01:13:00;3.63;90.11
75782;DHT22;64400;44.762;37.698;2022-12-19T01:15:48;3.61;90.21
75782;DHT22;64400;44.762;37.698;2022-12-19T01:18:37;3.59;89.92
75782;DHT22;64400;44.762;37.698;2022-12-19T01:21:26;3.54;90.02
75782;DHT22;64400;44.762;37.698;2022-12-19T01:24:14;3.46;89.91
75782;DHT22;64400;44.762;37.698;2022-12-19T01:27:03;3.48;90.89
75782;DHT22;64400;44.762;37.698;2022-12-19T01:29:51;3.44;90.49
75782;DHT22;64400;44.762;37.698;2022-12-19T01:32:41;3.44;90.21
75782;DHT22;64400;44.762;37.698;2022-12-19T01:35:29;3.41;90.65
75782;DHT22;64400;44.762;37.698;2022-12-19T01:38:19;3.41;90.41
75782;DHT22;64400;44.762;37.698;2022-12-19T01:41:09;3.34;90.26
75782;DHT22;64400;44.762;37.698;2022-12-19T01:44:00;3.30;88.68
75782;DHT22;64400;44.762;37.698;2022-12-19T01:46:53;3.19;87.89
75782;DHT22;64400;44.762;37.698;2022-12-19T01:49:44;3.17;88.40
75782;DHT22;64400;44.762;37.698;2022-12-19T01:52:33;3.15;88.54
75782;DHT22;64400;44.762;37.698;2022-12-19T01:55:22;3.09;88.69
75782;DHT22;64400;44.762;37.698;2022-12-19T01:57:53;3.10;88.38
75782;DHT22;64400;44.762;37.698;2022-12-19T02:00:43;3.05;88.28
75782;DHT22;64400;44.762;37.698;2022-12-19T02:03:34;3.01;88.31
75782;DHT22;64400;44.762;37.698;2022-12-19T02:06:24;2.99;88.18
75782;DHT22;64400;44.762;37.698;2022-12-19T02:09:13;2.96;88.00
75782;DHT22;64400;44.762;37.698;2022-12-19T02:12:02;2.95;88.22
75782;DHT22;64400;44.762;37.698;2022-12-19T02:14:52;2.98;88.31
75782;DHT22;64400;44.762;37.698;2022-12-19T02:31:15;2.78;87.26
75782;DHT22;64400;44.762;37.698;2022-12-19T02:37:04;2.73;88.35
75782;DHT22;64400;44.762;37.698;2022-12-19T02:40:08;2.78;88.76
75782;DHT22;64400;44.762;37.698;2022-12-19T02:42:59;2.81;87.98
75782;DHT22;64400;44.762;37.698;2022-12-19T02:45:51;2.74;87.04
75782;DHT22;64400;44.762;37.698;2022-12-19T02:48:42;2.75;87.75
75782;DHT22;64400;44.762;37.698;2022-12-19T02:51:30;2.80;88.78
75782;DHT22;64400;44.762;37.698;2022-12-19T02:54:19;2.75;87.81
75782;DHT22;64400;44.762;37.698;2022-12-19T02:57:22;2.75;88.57
75782;DHT22;64400;44.762;37.698;2022-12-19T03:00:18;2.76;88.97
75782;DHT22;64400;44.762;37.698;2022-12-19T03:03:31;2.79;88.75
75782;DHT22;64400;44.762;37.698;2022-12-19T03:06:36;2.70;89.14
75782;DHT22;64400;44.762;37.698;2022-12-19T03:12:15;2.64;89.48
75782;DHT22;64400;44.762;37.698;2022-12-19T03:15:06;2.66;90.51
75782;DHT22;64400;44.762;37.698;2022-12-19T03:17:58;2.62;90.22
75782;DHT22;64400;44.762;37.698;2022-12-19T03:21:02;2.57;91.01
75782;DHT22;64400;44.762;37.698;2022-12-19T03:23:53;2.52;91.17
75782;DHT22;64400;44.762;37.698;2022-12-19T03:27:10;2.54;91.44
75782;DHT22;64400;44.762;37.698;2022-12-19T03:30:11;2.54;90.73
75782;DHT22;64400;44.762;37.698;2022-12-19T03:33:01;2.50;91.11
75782;DHT22;64400;44.762;37.698;2022-12-19T03:35:51;2.51;90.56
75782;DHT22;64400;44.762;37.698;2022-12-19T03:38:43;2.49;90.76
75782;DHT22;64400;44.762;37.698;2022-12-19T03:41:26;2.47;90.47
75782;DHT22;64400;44.762;37.698;2022-12-19T03:44:36;2.50;91.34
75782;DHT22;64400;44.762;37.698;2022-12-19T03:47:12;2.51;90.42
75782;DHT22;64400;44.762;37.698;2022-12-19T03:50:04;2.45;89.54
75782;DHT22;64400;44.762;37.698;2022-12-19T03:53:09;2.47;90.50
75782;DHT22;64400;44.762;37.698;2022-12-19T04:02:41;2.41;89.50
75782;DHT22;64400;44.762;37.698;2022-12-19T04:05:34;2.36;88.99
75782;DHT22;64400;44.762;37.698;2022-12-19T04:08:25;2.35;89.47
75782;DHT22;64400;44.762;37.698;2022-12-19T04:11:19;2.29;89.54
75782;DHT22;64400;44.762;37.698;2022-12-19T04:14:14;2.29;89.43
75782;DHT22;64400;44.762;37.698;2022-12-19T04:20:21;2.29;89.73
75782;DHT22;64400;44.762;37.698;2022-12-19T04:26:03;2.27;89.05
75782;DHT22;64400;44.762;37.698;2022-12-19T04:28:55;2.26;89.43
75782;DHT22;64400;44.762;37.698;2022-12-19T04:31:45;2.14;89.52
75782;DHT22;64400;44.762;37.698;2022-12-19T04:34:35;2.12;89.43
75782;DHT22;64400;44.762;37.698;2022-12-19T04:37:25;2.11;90.13
75782;DHT22;64400;44.762;37.698;2022-12-19T04:40:13;2.12;90.64
75782;DHT22;64400;44.762;37.698;2022-12-19T04:43:02;2.11;90.03
75782;DHT22;64400;44.762;37.698;2022-12-19T04:45:50;2.09;89.41
75782;DHT22;64400;44.762;37.698;2022-12-19T04:48:40;1.98;89.27
75782;DHT22;64400;44.762;37.698;2022-12-19T04:51:28;1.91;88.87
75782;DHT22;64400;44.762;37.698;2022-12-19T04:54:17;1.91;89.05
75782;DHT22;64400;44.762;37.698;2022-12-19T04:57:07;1.94;88.71
75782;DHT22;64400;44.762;37.698;2022-12-19T04:59:56;1.92;89.20
75782;DHT22;64400;44.762;37.698;2022-12-19T05:02:44;1.93;88.56
75782;DHT22;64400;44.762;37.698;2022-12-19T05:05:33;1.96;89.72
75782;DHT22;64400;44.762;37.698;2022-12-19T05:08:21;1.91;88.70
75782;DHT22;64400;44.762;37.698;2022-12-19T05:11:13;1.91;89.36
75782;DHT22;64400;44.762;37.698;2022-12-19T05:14:02;1.91;89.25
75782;DHT22;64400;44.762;37.698;2022-12-19T05:16:51;1.90;89.71
75782;DHT22;64400;44.762;37.698;2022-12-19T05:19:41;1.93;89.62
75782;DHT22;64400;44.762;37.698;2022-12-19T05:22:30;1.93;89.18
75782;DHT22;64400;44.762;37.698;2022-12-19T05:25:19;1.88;88.69
75782;DHT22;64400;44.762;37.698;2022-12-19T05:28:08;1.92;88.52
75782;DHT22;64400;44.762;37.698;2022-12-19T05:31:07;1.85;87.38
75782;DHT22;64400;44.762;37.698;2022-12-19T05:33:37;1.87;88.06
75782;DHT22;64400;44.762;37.698;2022-12-19T05:36:26;1.83;86.61
75782;DHT22;64400;44.762;37.698;2022-12-19T05:39:15;1.82;86.39
75782;DHT22;64400;44.762;37.698;2022-12-19T05:42:04;1.84;85.77
75782;DHT22;64400;44.762;37.698;2022-12-19T05:44:52;1.80;85.82
75782;DHT22;64400;44.762;37.698;2022-12-19T05:47:44;1.76;87.21
75782;DHT22;64400;44.762;37.698;2022-12-19T05:50:33;1.75;86.45
75782;DHT22;64400;44.762;37.698;2022-12-19T05:53:22;1.71;87.22
75782;DHT22;64400;44.762;37.698;2022-12-19T05:56:13;1.69;87.64
75782;DHT22;64400;44.762;37.698;2022-12-19T05:58:44;1.65;87.27
75782;DHT22;64400;44.762;37.698;2022-12-19T06:01:32;1.63;87.92
75782;DHT22;64400;44.762;37.698;2022-12-19T06:04:21;1.61;87.89
75782;DHT22;64400;44.762;37.698;2022-12-19T06:07:09;1.63;88.41
75782;DHT22;64400;44.762;37.698;2022-12-19T06:09:58;1.61;88.51
75782;DHT22;64400;44.762;37.698;2022-12-19T06:12:46;1.57;88.27
75782;DHT22;64400;44.762;37.698;2022-12-19T06:15:35;1.61;88.98
75782;DHT22;64400;44.762;37.698;2022-12-19T06:18:24;1.62;88.73
75782;DHT22;64400;44.762;37.698;2022-12-19T06:21:14;1.63;88.25
75782;DHT22;64400;44.762;37.698;2022-12-19T06:24:04;1.66;88.44
75782;DHT22;64400;44.762;37.698;2022-12-19T06:26:53;1.65;88.21
75782;DHT22;64400;44.762;37.698;2022-12-19T06:29:42;1.60;87.38
75782;DHT22;64400;44.762;37.698;2022-12-19T06:32:31;1.60;87.30
75782;DHT22;64400;44.762;37.698;2022-12-19T06:35:20;1.61;87.54
75782;DHT22;64400;44.762;37.698;2022-12-19T06:38:09;1.52;87.62
75782;DHT22;64400;44.762;37.698;2022-12-19T06:40:57;1.57;87.87
75782;DHT22;64400;44.762;37.698;2022-12-19T06:44:07;1.56;87.02
75782;DHT22;64400;44.762;37.698;2022-12-19T06:46:56;1.60;87.32
75782;DHT22;64400;44.762;37.698;2022-12-19T06:49:25;1.56;86.72
75782;DHT22;64400;44.762;37.698;2022-12-19T06:52:14;1.61;87.01
75782;DHT22;64400;44.762;37.698;2022-12-19T06:54:45;1.61;86.29
75782;DHT22;64400;44.762;37.698;2022-12-19T06:57:34;1.65;86.83
75782;DHT22;64400;44.762;37.698;2022-12-19T07:00:23;1.66;86.84
75782;DHT22;64400;44.762;37.698;2022-12-19T07:03:17;1.61;86.35
75782;DHT22;64400;44.762;37.698;2022-12-19T07:06:06;1.53;86.43
75782;DHT22;64400;44.762;37.698;2022-12-19T07:08:56;1.42;86.41
75782;DHT22;64400;44.762;37.698;2022-12-19T07:11:45;1.40;87.03
75782;DHT22;64400;44.762;37.698;2022-12-19T07:14:14;1.48;87.51
75782;DHT22;64400;44.762;37.698;2022-12-19T07:17:03;1.46;87.13
75782;DHT22;64400;44.762;37.698;2022-12-19T07:19:53;1.46;86.41
75782;DHT22;64400;44.762;37.698;2022-12-19T07:22:43;1.46;86.62
75782;DHT22;64400;44.762;37.698;2022-12-19T07:25:32;1.38;85.85
75782;DHT22;64400;44.762;37.698;2022-12-19T07:28:20;1.37;86.26
75782;DHT22;64400;44.762;37.698;2022-12-19T07:31:09;1.27;85.75
75782;DHT22;64400;44.762;37.698;2022-12-19T07:33:58;1.29;87.19
75782;DHT22;64400;44.762;37.698;2022-12-19T07:36:46;1.31;86.17
75782;DHT22;64400;44.762;37.698;2022-12-19T07:39:35;1.34;87.09
75782;DHT22;64400;44.762;37.698;2022-12-19T07:42:23;1.36;87.59
75782;DHT22;64400;44.762;37.698;2022-12-19T07:45:12;1.32;87.37
75782;DHT22;64400;44.762;37.698;2022-12-19T07:48:02;1.25;87.28
75782;DHT22;64400;44.762;37.698;2022-12-19T07:50:51;1.26;87.41
75782;DHT22;64400;44.762;37.698;2022-12-19T07:53:39;1.22;87.51
75782;DHT22;64400;44.762;37.698;2022-12-19T07:56:29;1.18;86.67
75782;DHT22;64400;44.762;37.698;2022-12-19T07:59:18;1.13;87.81
75782;DHT22;64400;44.762;37.698;2022-12-19T08:02:06;1.14;88.18
75782;DHT22;64400;44.762;37.698;2022-12-19T08:04:55;1.19;87.04
75782;DHT22;64400;44.762;37.698;2022-12-19T08:07:44;1.17;87.03
75782;DHT22;64400;44.762;37.698;2022-12-19T08:10:32;1.23;87.62
75782;DHT22;64400;44.762;37.698;2022-12-19T08:13:21;1.22;86.80
75782;DHT22;64400;44.762;37.698;2022-12-19T08:16:10;1.25;86.74
75782;DHT22;64400;44.762;37.698;2022-12-19T08:18:45;1.31;85.74
75782;DHT22;64400;44.762;37.698;2022-12-19T08:21:33;1.33;85.18
75782;DHT22;64400;44.762;37.698;2022-12-19T08:24:22;1.40;85.51
75782;DHT22;64400;44.762;37.698;2022-12-19T08:27:10;1.37;84.77
75782;DHT22;64400;44.762;37.698;2022-12-19T08:29:59;1.36;83.88
75782;DHT22;64400;44.762;37.698;2022-12-19T08:32:47;1.29;84.18
75782;DHT22;64400;44.762;37.698;2022-12-19T08:35:36;1.24;84.31
75782;DHT22;64400;44.762;37.698;2022-12-19T08:38:24;1.24;84.13
75782;DHT22;64400;44.762;37.698;2022-12-19T08:41:14;1.22;84.19
75782;DHT22;64400;44.762;37.698;2022-12-19T08:44:03;1.23;84.10
75782;DHT22;64400;44.762;37.698;2022-12-19T08:46:52;1.24;83.00
75782;DHT22;64400;44.762;37.698;2022-12-19T08:49:41;1.20;82.85
75782;DHT22;64400;44.762;37.698;2022-12-19T08:52:16;1.16;82.20
75782;DHT22;64400;44.762;37.698;2022-12-19T08:55:06;1.17;82.63
75782;DHT22;64400;44.762;37.698;2022-12-19T08:57:54;1.26;82.45
75782;DHT22;64400;44.762;37.698;2022-12-19T09:00:28;1.27;80.62
75782;DHT22;64400;44.762;37.698;2022-12-19T09:03:16;1.27;81.15
75782;DHT22;64400;44.762;37.698;2022-12-19T09:06:07;1.32;80.67
75782;DHT22;64400;44.762;37.698;2022-12-19T09:08:56;1.33;81.86
75782;DHT22;64400;44.762;37.698;2022-12-19T09:11:44;1.42;82.29
75782;DHT22;64400;44.762;37.698;2022-12-19T09:14:34;1.48;81.96
75782;DHT22;64400;44.762;37.698;2022-12-19T09:17:22;1.53;81.59
75782;DHT22;64400;44.762;37.698;2022-12-19T09:19:52;1.43;81.75
75782;DHT22;64400;44.762;37.698;2022-12-19T09:22:40;1.46;82.04
75782;DHT22;64400;44.762;37.698;2022-12-19T09:25:29;1.41;80.83
75782;DHT22;64400;44.762;37.698;2022-12-19T09:28:17;1.37;81.47
75782;DHT22;64400;44.762;37.698;2022-12-19T09:31:09;1.47;82.47
75782;DHT22;64400;44.762;37.698;2022-12-19T09:33:58;1.49;81.22
75782;DHT22;64400;44.762;37.698;2022-12-19T09:36:47;1.61;81.51
75782;DHT22;64400;44.762;37.698;2022-12-19T09:39:36;1.84;80.32
75782;DHT22;64400;44.762;37.698;2022-12-19T09:42:29;1.96;79.65
75782;DHT22;64400;44.762;37.698;2022-12-19T09:48:36;2.05;78.47
75782;DHT22;64400;44.762;37.698;2022-12-19T09:55:14;2.32;78.15
75782;DHT22;64400;44.762;37.698;2022-12-19T09:58:02;2.32;78.08
75782;DHT22;64400;44.762;37.698;2022-12-19T10:00:57;2.31;76.73
75782;DHT22;64400;44.762;37.698;2022-12-19T10:04:11;2.28;76.72
75782;DHT22;64400;44.762;37.698;2022-12-19T10:07:01;2.32;77.49
75782;DHT22;64400;44.762;37.698;2022-12-19T10:09:50;2.26;76.24
75782;DHT22;64400;44.762;37.698;2022-12-19T10:13:12;2.20;76.53
75782;DHT22;64400;44.762;37.698;2022-12-19T10:19:20;1.99;76.92
75782;DHT22;64400;44.762;37.698;2022-12-19T10:25:41;1.92;78.00
75782;DHT22;64400;44.762;37.698;2022-12-19T10:28:58;1.87;78.19
75782;DHT22;64400;44.762;37.698;2022-12-19T10:32:11;1.80;78.05
75782;DHT22;64400;44.762;37.698;2022-12-19T10:35:15;1.79;78.43
75782;DHT22;64400;44.762;37.698;2022-12-19T10:44:08;1.80;79.11
75782;DHT22;64400;44.762;37.698;2022-12-19T10:46:57;1.78;78.75
75782;DHT22;64400;44.762;37.698;2022-12-19T10:49:46;1.76;79.71
75782;DHT22;64400;44.762;37.698;2022-12-19T10:55:53;1.61;79.48
75782;DHT22;64400;44.762;37.698;2022-12-19T10:58:33;1.63;79.38
75782;DHT22;64400;44.762;37.698;2022-12-19T11:10:42;1.38;79.84
75782;DHT22;64400;44.762;37.698;2022-12-19T11:16:33;1.22;81.34
75782;DHT22;64400;44.762;37.698;2022-12-19T11:22:28;1.42;81.82
75782;DHT22;64400;44.762;37.698;2022-12-19T11:25:20;1.38;78.95
75782;DHT22;64400;44.762;37.698;2022-12-19T11:28:16;1.40;80.38
75782;DHT22;64400;44.762;37.698;2022-12-19T11:31:09;1.35;80.57
75782;DHT22;64400;44.762;37.698;2022-12-19T11:34:20;1.39;80.44
75782;DHT22;64400;44.762;37.698;2022-12-19T11:37:23;1.36;79.21
75782;DHT22;64400;44.762;37.698;2022-12-19T11:40:32;1.32;79.37
75782;DHT22;64400;44.762;37.698;2022-12-19T11:47:02;1.28;77.83
75782;DHT22;64400;44.762;37.698;2022-12-19T11:56:28;1.14;78.91
75782;DHT22;64400;44.762;37.698;2022-12-19T11:59:20;1.03;79.39
75782;DHT22;64400;44.762;37.698;2022-12-19T12:02:23;1.05;80.69
75782;DHT22;64400;44.762;37.698;2022-12-19T12:08:41;1.03;80.94
75782;DHT22;64400;44.762;37.698;2022-12-19T12:11:43;0.96;80.96
75782;DHT22;64400;44.762;37.698;2022-12-19T12:24:05;0.95;81.54
75782;DHT22;64400;44.762;37.698;2022-12-19T12:30:38;1.02;79.82
75782;DHT22;64400;44.762;37.698;2022-12-19T12:43:53;0.95;78.36
75782;DHT22;64400;44.762;37.698;2022-12-19T12:47:00;0.90;79.15
75782;DHT22;64400;44.762;37.698;2022-12-19T12:49:56;0.87;78.40
75782;DHT22;64400;44.762;37.698;2022-12-19T12:52:49;0.92;78.62
75782;DHT22;64400;44.762;37.698;2022-12-19T12:55:40;0.78;78.05
75782;DHT22;64400;44.762;37.698;2022-12-19T12:58:43;0.87;78.66
75782;DHT22;64400;44.762;37.698;2022-12-19T13:01:38;0.81;78.42
75782;DHT22;64400;44.762;37.698;2022-12-19T13:07:13;0.79;78.25
75782;DHT22;64400;44.762;37.698;2022-12-19T13:10:33;0.71;78.95
75782;DHT22;64400;44.762;37.698;2022-12-19T13:19:39;0.62;80.36
75782;DHT22;64400;44.762;37.698;2022-12-19T13:23:02;0.63;80.06
75782;DHT22;64400;44.762;37.698;2022-12-19T13:25:52;0.55;79.69
75782;DHT22;64400;44.762;37.698;2022-12-19T13:28:44;0.63;80.81
75782;DHT22;64400;44.762;37.698;2022-12-19T13:31:34;0.63;80.16
75782;DHT22;64400;44.762;37.698;2022-12-19T13:37:20;0.53;80.13
75782;DHT22;64400;44.762;37.698;2022-12-19T13:40:49;0.52;81.39
75782;DHT22;64400;44.762;37.698;2022-12-19T13:43:41;0.49;80.91
75782;DHT22;64400;44.762;37.698;2022-12-19T13:46:48;0.51;81.04
75782;DHT22;64400;44.762;37.698;2022-12-19T13:49:37;0.43;81.23
75782;DHT22;64400;44.762;37.698;2022-12-19T13:52:26;0.43;81.14
75782;DHT22;64400;44.762;37.698;2022-12-19T13:55:15;0.33;80.77
75782;DHT22;64400;44.762;37.698;2022-12-19T13:58:04;0.21;81.05
75782;DHT22;64400;44.762;37.698;2022-12-19T14:00:55;0.22;83.18
75782;DHT22;64400;44.762;37.698;2022-12-19T14:03:46;0.17;80.14
75782;DHT22;64400;44.762;37.698;2022-12-19T14:06:44;0.15;80.29
75782;DHT22;64400;44.762;37.698;2022-12-19T14:09:39;0.20;78.95
75782;DHT22;64400;44.762;37.698;2022-12-19T14:12:34;0.19;78.94
75782;DHT22;64400;44.762;37.698;2022-12-19T14:15:45;0.20;79.36
75782;DHT22;64400;44.762;37.698;2022-12-19T14:18:35;0.17;79.56
75782;DHT22;64400;44.762;37.698;2022-12-19T14:21:25;0.09;79.69
75782;DHT22;64400;44.762;37.698;2022-12-19T14:24:20;0.16;81.45
75782;DHT22;64400;44.762;37.698;2022-12-19T14:27:14;0.17;79.57
75782;DHT22;64400;44.762;37.698;2022-12-19T14:30:10;0.14;79.78
75782;DHT22;64400;44.762;37.698;2022-12-19T14:33:13;0.09;80.17
75782;DHT22;64400;44.762;37.698;2022-12-19T14:36:03;0.08;79.09
75782;DHT22;64400;44.762;37.698;2022-12-19T14:38:54;0.12;80.41
75782;DHT22;64400;44.762;37.698;2022-12-19T14:41:44;0.05;79.74
75782;DHT22;64400;44.762;37.698;2022-12-19T14:44:50;0.06;80.41
75782;DHT22;64400;44.762;37.698;2022-12-19T14:47:40;0.01;78.76
75782;DHT22;64400;44.762;37.698;2022-12-19T14:50:34;-0.06;81.04
75782;DHT22;64400;44.762;37.698;2022-12-19T14:53:22;-0.02;81.24
75782;DHT22;64400;44.762;37.698;2022-12-19T14:56:13;-0.10;77.92
75782;DHT22;64400;44.762;37.698;2022-12-19T14:59:03;-0.09;78.29
75782;DHT22;64400;44.762;37.698;2022-12-19T15:05:11;-0.11;78.37
75782;DHT22;64400;44.762;37.698;2022-12-19T15:08:01;-0.12;78.31
75782;DHT22;64400;44.762;37.698;2022-12-19T15:10:49;-0.14;79.69
75782;DHT22;64400;44.762;37.698;2022-12-19T15:13:38;-0.17;77.98
75782;DHT22;64400;44.762;37.698;2022-12-19T15:16:31;-0.12;79.52
75782;DHT22;64400;44.762;37.698;2022-12-19T15:19:23;-0.15;78.26
75782;DHT22;64400;44.762;37.698;2022-12-19T15:22:14;-0.19;77.28
75782;DHT22;64400;44.762;37.698;2022-12-19T15:25:03;-0.23;77.96
75782;DHT22;64400;44.762;37.698;2022-12-19T15:27:31;-0.23;77.01
75782;DHT22;64400;44.762;37.698;2022-12-19T15:30:01;-0.24;78.56
75782;DHT22;64400;44.762;37.698;2022-12-19T15:32:50;-0.23;78.43
75782;DHT22;64400;44.762;37.698;2022-12-19T15:35:38;-0.19;79.51
75782;DHT22;64400;44.762;37.698;2022-12-19T15:38:08;-0.19;78.89
75782;DHT22;64400;44.762;37.698;2022-12-19T15:40:58;-0.14;78.63
75782;DHT22;64400;44.762;37.698;2022-12-19T15:43:47;-0.20;79.62
75782;DHT22;64400;44.762;37.698;2022-12-19T15:46:36;-0.16;79.75
75782;DHT22;64400;44.762;37.698;2022-12-19T15:49:25;-0.20;78.86
75782;DHT22;64400;44.762;37.698;2022-12-19T15:52:16;-0.24;77.53
75782;DHT22;64400;44.762;37.698;2022-12-19T15:55:08;-0.26;78.50
75782;DHT22;64400;44.762;37.698;2022-12-19T15:58:04;-0.23;78.98
75782;DHT22;64400;44.762;37.698;2022-12-19T16:00:56;-0.23;78.94
75782;DHT22;64400;44.762;37.698;2022-12-19T16:03:46;-0.19;79.42
75782;DHT22;64400;44.762;37.698;2022-12-19T16:06:34;-0.21;78.74
75782;DHT22;64400;44.762;37.698;2022-12-19T16:09:26;-0.17;79.17
75782;DHT22;64400;44.762;37.698;2022-12-19T16:12:18;-0.16;79.43
75782;DHT22;64400;44.762;37.698;2022-12-19T16:15:33;-0.11;79.18
75782;DHT22;64400;44.762;37.698;2022-12-19T16:18:22;-0.14;78.92
75782;DHT22;64400;44.762;37.698;2022-12-19T16:21:22;-0.10;80.62
75782;DHT22;64400;44.762;37.698;2022-12-19T16:24:12;-0.05;79.59
75782;DHT22;64400;44.762;37.698;2022-12-19T16:27:00;-0.14;76.86
75782;DHT22;64400;44.762;37.698;2022-12-19T16:29:50;-0.15;77.63
75782;DHT22;64400;44.762;37.698;2022-12-19T16:32:39;-0.14;77.40
75782;DHT22;64400;44.762;37.698;2022-12-19T16:35:28;-0.24;77.13
75782;DHT22;64400;44.762;37.698;2022-12-19T16:38:18;-0.22;78.35
75782;DHT22;64400;44.762;37.698;2022-12-19T16:41:18;-0.22;79.04
75782;DHT22;64400;44.762;37.698;2022-12-19T16:44:19;-0.21;79.30
75782;DHT22;64400;44.762;37.698;2022-12-19T16:47:11;-0.26;79.87
75782;DHT22;64400;44.762;37.698;2022-12-19T16:50:01;-0.24;80.20
75782;DHT22;64400;44.762;37.698;2022-12-19T16:52:34;-0.31;79.46
75782;DHT22;64400;44.762;37.698;2022-12-19T16:55:24;-0.39;79.75
75782;DHT22;64400;44.762;37.698;2022-12-19T16:58:19;-0.43;77.87
75782;DHT22;64400;44.762;37.698;2022-12-19T17:01:08;-0.46;79.98
75782;DHT22;64400;44.762;37.698;2022-12-19T17:03:57;-0.40;80.34
75782;DHT22;64400;44.762;37.698;2022-12-19T17:06:46;-0.41;80.53
75782;DHT22;64400;44.762;37.698;2022-12-19T17:09:34;-0.42;78.67
75782;DHT22;64400;44.762;37.698;2022-12-19T17:12:23;-0.44;80.74
75782;DHT22;64400;44.762;37.698;2022-12-19T17:15:29;-0.44;79.12
75782;DHT22;64400;44.762;37.698;2022-12-19T17:18:35;-0.46;79.59
75782;DHT22;64400;44.762;37.698;2022-12-19T17:21:24;-0.50;79.56
75782;DHT22;64400;44.762;37.698;2022-12-19T17:24:13;-0.45;81.20
75782;DHT22;64400;44.762;37.698;2022-12-19T17:27:03;-0.52;79.01
75782;DHT22;64400;44.762;37.698;2022-12-19T17:29:51;-0.55;80.59
75782;DHT22;64400;44.762;37.698;2022-12-19T17:32:41;-0.55;80.82
75782;DHT22;64400;44.762;37.698;2022-12-19T17:35:17;-0.55;80.94
75782;DHT22;64400;44.762;37.698;2022-12-19T17:38:08;-0.55;81.05
75782;DHT22;64400;44.762;37.698;2022-12-19T17:40:57;-0.55;80.81
75782;DHT22;64400;44.762;37.698;2022-12-19T17:43:45;-0.60;79.40
75782;DHT22;64400;44.762;37.698;2022-12-19T17:46:35;-0.57;81.20
75782;DHT22;64400;44.762;37.698;2022-12-19T17:49:29;-0.55;80.27
75782;DHT22;64400;44.762;37.698;2022-12-19T17:52:18;-0.59;79.99
75782;DHT22;64400;44.762;37.698;2022-12-19T17:54:50;-0.58;79.47
75782;DHT22;64400;44.762;37.698;2022-12-19T17:57:39;-0.56;80.08
75782;DHT22;64400;44.762;37.698;2022-12-19T18:00:31;-0.56;79.30
75782;DHT22;64400;44.762;37.698;2022-12-19T18:03:24;-0.59;80.07
75782;DHT22;64400;44.762;37.698;2022-12-19T18:06:14;-0.59;80.99
75782;DHT22;64400;44.762;37.698;2022-12-19T18:09:04;-0.58;80.66
75782;DHT22;64400;44.762;37.698;2022-12-19T18:11:55;-0.54;81.46
75782;DHT22;64400;44.762;37.698;2022-12-19T18:14:43;-0.51;81.20
75782;DHT22;64400;44.762;37.698;2022-12-19T18:17:32;-0.50;81.89
75782;DHT22;64400;44.762;37.698;2022-12-19T18:20:30;-0.50;81.04
75782;DHT22;64400;44.762;37.698;2022-12-19T18:23:21;-0.52;81.49
75782;DHT22;64400;44.762;37.698;2022-12-19T18:26:14;-0.55;82.25
75782;DHT22;64400;44.762;37.698;2022-12-19T18:29:03;-0.56;80.53
75782;DHT22;64400;44.762;37.698;2022-12-19T18:31:56;-0.57;81.45
75782;DHT22;64400;44.762;37.698;2022-12-19T18:34:45;-0.53;83.32
75782;DHT22;64400;44.762;37.698;2022-12-19T18:37:33;-0.53;82.43
75782;DHT22;64400;44.762;37.698;2022-12-19T18:40:24;-0.52;80.77
75782;DHT22;64400;44.762;37.698;2022-12-19T18:43:00;-0.58;81.53
75782;DHT22;64400;44.762;37.698;2022-12-19T18:45:50;-0.53;82.08
75782;DHT22;64400;44.762;37.698;2022-12-19T18:48:38;-0.55;81.97
75782;DHT22;64400;44.762;37.698;2022-12-19T18:51:27;-0.55;81.29
75782;DHT22;64400;44.762;37.698;2022-12-19T18:54:19;-0.56;82.64
75782;DHT22;64400;44.762;37.698;2022-12-19T18:56:53;-0.52;82.50
75782;DHT22;64400;44.762;37.698;2022-12-19T18:59:41;-0.50;82.88
75782;DHT22;64400;44.762;37.698;2022-12-19T19:02:32;-0.51;83.35
75782;DHT22;64400;44.762;37.698;2022-12-19T19:05:02;-0.49;82.22
75782;DHT22;64400;44.762;37.698;2022-12-19T19:07:35;-0.49;83.13
75782;DHT22;64400;44.762;37.698;2022-12-19T19:10:30;-0.54;82.32
75782;DHT22;64400;44.762;37.698;2022-12-19T19:13:20;-0.57;82.44
75782;DHT22;64400;44.762;37.698;2022-12-19T19:16:18;-0.53;82.46
75782;DHT22;64400;44.762;37.698;2022-12-19T19:19:09;-0.52;83.52
75782;DHT22;64400;44.762;37.698;2022-12-19T19:21:59;-0.52;83.68
75782;DHT22;64400;44.762;37.698;2022-12-19T19:24:47;-0.51;85.04
75782;DHT22;64400;44.762;37.698;2022-12-19T19:27:19;-0.49;84.35
75782;DHT22;64400;44.762;37.698;2022-12-19T19:30:09;-0.49;84.57
75782;DHT22;64400;44.762;37.698;2022-12-19T19:33:20;-0.42;84.19
75782;DHT22;64400;44.762;37.698;2022-12-19T19:36:14;-0.43;84.33
75782;DHT22;64400;44.762;37.698;2022-12-19T19:39:04;-0.46;84.01
75782;DHT22;64400;44.762;37.698;2022-12-19T19:41:52;-0.42;83.78
75782;DHT22;64400;44.762;37.698;2022-12-19T19:44:44;-0.46;83.16
75782;DHT22;64400;44.762;37.698;2022-12-19T19:47:28;-0.50;83.80
75782;DHT22;64400;44.762;37.698;2022-12-19T19:50:19;-0.56;82.23
75782;DHT22;64400;44.762;37.698;2022-12-19T19:52:57;-0.68;82.35
75782;DHT22;64400;44.762;37.698;2022-12-19T19:55:57;-0.66;82.75
75782;DHT22;64400;44.762;37.698;2022-12-19T19:58:48;-0.65;82.13